Time;durP1;ratioP1;P1;durP2;ratioP2;P2;SDS_P1;SDS_P2;PMS_P1;PMS_P2;Temp;Humidity;BMP_temperature;BMP_pressure;BME280_temperature;BME280_humidity;BME280_pressure;Samples;Min_cycle;Max_cycle;Signal;HPM_P1;HPM_P2
2023/05/23 00:01:36;;;;;;;27.30;10.15;;;14.50;99.90;;;;;;5067899;28;20039;-73
2023/05/23 00:04:03;;;;;;;29.20;9.70;;;14.50;99.90;;;;;;5062392;28;20025;-73
2023/05/23 00:06:28;;;;;;;26.42;9.10;;;14.50;99.90;;;;;;5067353;28;20032;-73
2023/05/23 00:08:56;;;;;;;21.85;9.20;;;14.50;99.90;;;;;;5055777;28;20033;-73
2023/05/23 00:11:26;;;;;;;26.73;10.02;;;14.40;99.90;;;;;;5043093;28;20032;-73
2023/05/23 00:13:56;;;;;;;23.77;10.02;;;14.40;99.90;;;;;;5046032;28;20029;-76
2023/05/23 00:16:22;;;;;;;28.52;10.18;;;14.40;99.90;;;;;;5066379;28;20024;-76
2023/05/23 00:18:49;;;;;;;25.30;9.65;;;14.40;99.90;;;;;;5073104;28;20028;-75
2023/05/23 00:21:15;;;;;;;27.27;10.90;;;14.40;99.90;;;;;;5038791;28;20021;-74
2023/05/23 00:23:41;;;;;;;27.55;9.88;;;14.40;99.90;;;;;;5071655;28;20088;-74
2023/05/23 00:26:10;;;;;;;28.75;9.50;;;14.40;99.90;;;;;;5072143;28;20107;-73
2023/05/23 00:28:39;;;;;;;29.08;10.13;;;14.40;99.90;;;;;;5068895;28;20052;-74
2023/05/23 00:31:05;;;;;;;24.52;8.45;;;14.30;99.90;;;;;;5068905;28;20033;-74
2023/05/23 00:33:32;;;;;;;22.98;7.18;;;14.30;99.90;;;;;;5072964;28;20028;-72
2023/05/23 00:35:58;;;;;;;24.50;8.02;;;14.40;99.90;;;;;;5063939;28;20055;-76
2023/05/23 00:38:23;;;;;;;24.40;7.82;;;14.40;99.90;;;;;;5047392;28;20028;-73
2023/05/23 00:40:49;;;;;;;24.75;8.52;;;14.40;99.90;;;;;;5049112;28;20029;-73
2023/05/23 00:43:15;;;;;;;28.05;7.63;;;14.40;99.90;;;;;;5058799;28;20154;-73
2023/05/23 00:45:40;;;;;;;26.90;8.27;;;14.40;99.90;;;;;;5068102;28;20495;-72
2023/05/23 00:48:07;;;;;;;27.67;8.02;;;14.40;99.90;;;;;;5062611;28;20431;-75
2023/05/23 00:50:35;;;;;;;26.80;7.43;;;14.40;99.90;;;;;;5067025;28;20127;-73
2023/05/23 00:53:01;;;;;;;26.20;9.40;;;14.40;99.90;;;;;;5038559;28;20411;-72
2023/05/23 00:55:28;;;;;;;30.23;9.48;;;14.40;99.90;;;;;;5070069;28;20024;-74
2023/05/23 00:57:55;;;;;;;27.02;8.32;;;14.40;99.90;;;;;;5079488;28;20028;-74
2023/05/23 01:00:23;;;;;;;27.83;8.60;;;14.30;99.90;;;;;;5061161;28;20021;-74
2023/05/23 01:02:52;;;;;;;29.05;8.00;;;14.30;99.90;;;;;;5068938;28;20032;-74
2023/05/23 01:05:21;;;;;;;28.08;8.68;;;14.30;99.90;;;;;;5064167;28;20028;-73
2023/05/23 01:07:49;;;;;;;21.27;7.60;;;14.30;99.90;;;;;;5069332;28;20043;-74
2023/05/23 01:10:18;;;;;;;29.38;8.27;;;14.30;99.90;;;;;;5056200;28;20048;-75
2023/05/23 01:13:13;;;;;;;27.23;8.02;;;14.30;99.90;;;;;;5060506;28;20063;-76
2023/05/23 01:15:45;;;;;;;22.70;7.88;;;14.30;99.90;;;;;;5071310;28;20082;-74
2023/05/23 01:18:32;;;;;;;23.83;7.70;;;14.30;99.90;;;;;;5062229;28;20031;-73
2023/05/23 01:21:10;;;;;;;21.30;7.03;;;14.20;99.90;;;;;;5045856;28;20043;-73
2023/05/23 01:24:20;;;;;;;25.35;8.10;;;14.20;99.90;;;;;;5050238;28;20074;-73
2023/05/23 01:27:08;;;;;;;25.60;7.55;;;14.20;99.90;;;;;;5060628;28;20073;-74
2023/05/23 01:29:38;;;;;;;19.98;7.13;;;14.30;99.90;;;;;;5057312;28;20053;-73
2023/05/23 01:32:10;;;;;;;25.08;8.13;;;14.30;99.90;;;;;;5071026;28;20469;-73
2023/05/23 01:34:37;;;;;;;25.33;7.25;;;14.20;99.90;;;;;;5065945;28;20116;-74
2023/05/23 01:37:13;;;;;;;25.50;7.60;;;14.20;99.90;;;;;;5065406;28;20032;-73
2023/05/23 01:39:39;;;;;;;28.15;7.53;;;14.20;99.90;;;;;;5070532;28;20032;-74
2023/05/23 01:42:05;;;;;;;26.10;7.30;;;14.20;99.90;;;;;;5071664;28;20021;-72
2023/05/23 01:44:33;;;;;;;25.65;7.43;;;14.20;99.90;;;;;;5060288;28;20032;-73
2023/05/23 01:46:59;;;;;;;19.63;6.65;;;14.20;99.90;;;;;;5052606;28;20025;-73
2023/05/23 01:49:26;;;;;;;27.02;7.10;;;14.20;99.90;;;;;;5052202;28;20037;-73
2023/05/23 01:51:52;;;;;;;25.58;7.65;;;14.30;99.90;;;;;;5055773;28;20059;-72
2023/05/23 01:54:18;;;;;;;28.90;7.65;;;14.20;99.90;;;;;;5064282;28;20112;-73
2023/05/23 01:56:44;;;;;;;24.98;5.30;;;14.30;99.90;;;;;;5067727;28;20420;-74
2023/05/23 01:59:10;;;;;;;22.95;6.57;;;14.20;99.90;;;;;;5060294;28;20059;-74
2023/05/23 02:01:36;;;;;;;25.35;8.30;;;14.20;99.90;;;;;;5054473;28;20407;-74
2023/05/23 02:04:03;;;;;;;23.55;6.78;;;14.20;99.90;;;;;;5061187;28;20021;-75
2023/05/23 02:06:28;;;;;;;20.00;5.47;;;14.20;99.90;;;;;;5052164;28;20083;-74
2023/05/23 02:08:54;;;;;;;26.85;6.68;;;14.20;99.90;;;;;;5052149;28;20124;-73
2023/05/23 02:11:21;;;;;;;23.15;6.60;;;14.20;99.90;;;;;;5069873;28;20432;-73
2023/05/23 02:13:46;;;;;;;21.30;5.97;;;14.20;99.90;;;;;;5071958;28;20108;-73
2023/05/23 02:16:12;;;;;;;25.83;6.95;;;14.20;99.90;;;;;;5072375;28;20103;-76
2023/05/23 02:18:38;;;;;;;24.08;5.95;;;14.20;99.90;;;;;;5075567;28;20107;-75
2023/05/23 02:21:07;;;;;;;20.85;5.57;;;14.20;99.90;;;;;;5058672;28;20032;-74
2023/05/23 02:23:32;;;;;;;22.45;5.80;;;14.20;99.90;;;;;;5057740;28;20071;-73
2023/05/23 02:25:58;;;;;;;24.65;5.07;;;14.20;99.90;;;;;;5075636;28;20020;-75
2023/05/23 02:28:23;;;;;;;18.23;4.70;;;14.20;99.90;;;;;;5068313;28;20082;-75
2023/05/23 02:30:49;;;;;;;22.75;5.40;;;14.20;99.90;;;;;;5061281;28;20051;-75
2023/05/23 02:33:15;;;;;;;18.83;5.22;;;14.20;99.90;;;;;;5055624;28;20036;-74
2023/05/23 02:35:41;;;;;;;20.35;4.57;;;14.10;99.90;;;;;;5055533;28;20028;-73
2023/05/23 02:38:06;;;;;;;18.58;5.43;;;14.10;99.90;;;;;;5056488;28;20027;-73
2023/05/23 02:40:32;;;;;;;18.17;5.05;;;14.00;99.90;;;;;;5067569;28;20105;-74
2023/05/23 02:42:57;;;;;;;21.95;4.80;;;14.10;99.90;;;;;;5072871;28;20024;-74
2023/05/23 02:45:23;;;;;;;14.90;4.53;;;14.10;99.90;;;;;;5060331;28;20624;-75
2023/05/23 02:47:49;;;;;;;7.45;3.00;;;14.10;99.90;;;;;;5062793;28;20617;-77
2023/05/23 02:50:15;;;;;;;17.38;4.63;;;14.00;99.90;;;;;;5066540;28;20040;-74
2023/05/23 02:52:41;;;;;;;9.13;3.47;;;13.90;99.90;;;;;;5059586;28;20055;-76
2023/05/23 02:55:07;;;;;;;18.25;4.30;;;13.90;99.90;;;;;;5061295;28;20029;-74
2023/05/23 02:57:33;;;;;;;15.52;4.13;;;13.80;99.90;;;;;;5070342;28;20380;-75
2023/05/23 02:59:58;;;;;;;11.27;3.33;;;13.80;99.90;;;;;;5064827;28;20029;-73
2023/05/23 03:02:24;;;;;;;12.52;3.10;;;13.80;99.90;;;;;;5054579;28;20055;-75
2023/05/23 03:04:50;;;;;;;20.02;4.78;;;13.70;99.90;;;;;;5070855;28;20038;-74
2023/05/23 03:07:15;;;;;;;19.35;4.25;;;13.70;99.90;;;;;;5057734;28;20028;-74
2023/05/23 03:09:41;;;;;;;18.48;4.22;;;13.70;99.90;;;;;;5062923;28;20076;-74
2023/05/23 03:12:07;;;;;;;22.33;4.22;;;13.70;99.90;;;;;;5064001;28;20029;-74
2023/05/23 03:14:32;;;;;;;17.75;4.63;;;13.70;99.90;;;;;;5069005;28;20078;-72
2023/05/23 03:16:58;;;;;;;12.77;3.67;;;13.70;99.90;;;;;;5057898;28;20055;-73
2023/05/23 03:19:23;;;;;;;17.13;4.63;;;13.70;99.90;;;;;;5061819;28;20021;-74
2023/05/23 03:21:51;;;;;;;20.67;4.95;;;13.60;99.90;;;;;;5070846;28;20460;-73
2023/05/23 03:24:16;;;;;;;16.42;4.75;;;13.60;99.90;;;;;;5062517;28;20031;-75
2023/05/23 03:26:42;;;;;;;15.68;3.65;;;13.60;99.90;;;;;;5069414;28;20040;-73
2023/05/23 03:29:09;;;;;;;18.50;4.50;;;13.60;99.90;;;;;;5064947;28;20056;-75
2023/05/23 03:31:35;;;;;;;18.05;4.20;;;13.60;99.90;;;;;;5080588;28;20024;-73
2023/05/23 03:34:01;;;;;;;18.00;4.50;;;13.60;99.90;;;;;;5087651;28;20016;-76
2023/05/23 03:36:27;;;;;;;16.70;5.05;;;13.60;99.90;;;;;;5094378;28;20030;-73
2023/05/23 03:38:53;;;;;;;13.90;3.63;;;13.50;99.90;;;;;;5080784;28;20024;-73
2023/05/23 03:41:18;;;;;;;16.05;4.72;;;13.50;99.90;;;;;;5085412;28;20025;-73
2023/05/23 03:43:44;;;;;;;17.98;5.10;;;13.50;99.90;;;;;;5081467;28;20020;-76
2023/05/23 03:46:10;;;;;;;17.38;4.55;;;13.40;99.90;;;;;;5088350;28;20118;-74
2023/05/23 03:48:35;;;;;;;14.98;5.50;;;13.40;99.90;;;;;;5093558;28;20491;-74
2023/05/23 03:51:01;;;;;;;16.90;5.50;;;13.40;99.90;;;;;;5094702;28;20036;-75
2023/05/23 03:53:27;;;;;;;18.88;4.95;;;13.30;99.90;;;;;;5089664;28;20029;-73
2023/05/23 03:55:52;;;;;;;14.30;5.65;;;13.40;99.90;;;;;;5081705;28;20076;-73
2023/05/23 03:58:19;;;;;;;21.52;6.55;;;13.40;99.90;;;;;;5093772;28;20028;-73
2023/05/23 04:00:45;;;;;;;19.55;7.25;;;13.30;99.90;;;;;;5093606;28;20417;-74
2023/05/23 04:03:13;;;;;;;19.88;6.75;;;13.40;99.90;;;;;;5090974;28;20099;-73
2023/05/23 04:05:39;;;;;;;20.52;6.88;;;13.40;99.90;;;;;;5089711;28;20024;-73
2023/05/23 04:08:05;;;;;;;21.40;6.35;;;13.40;99.90;;;;;;5093327;28;20031;-73
2023/05/23 04:10:31;;;;;;;17.63;5.60;;;13.30;99.90;;;;;;5085626;28;20036;-73
2023/05/23 04:12:57;;;;;;;20.25;6.25;;;13.30;99.90;;;;;;5093381;28;20043;-75
2023/05/23 04:15:23;;;;;;;22.40;6.75;;;13.30;99.90;;;;;;5088508;28;20061;-74
2023/05/23 04:17:50;;;;;;;18.48;5.95;;;13.30;99.90;;;;;;5086997;28;20461;-75
2023/05/23 04:20:16;;;;;;;13.05;4.95;;;13.30;99.90;;;;;;5083941;28;20028;-75
2023/05/23 04:22:41;;;;;;;17.65;6.63;;;13.30;99.90;;;;;;5089383;28;20078;-73
2023/05/23 04:25:08;;;;;;;21.95;7.13;;;13.30;99.90;;;;;;5093524;28;20032;-75
2023/05/23 04:27:34;;;;;;;20.35;7.22;;;13.30;99.90;;;;;;5077650;28;20016;-74
2023/05/23 04:30:00;;;;;;;20.70;7.10;;;13.30;99.90;;;;;;5071525;28;20054;-76
2023/05/23 04:32:25;;;;;;;19.45;6.78;;;13.30;99.90;;;;;;5061311;28;20132;-74
2023/05/23 04:34:51;;;;;;;19.90;7.03;;;13.30;99.90;;;;;;5052884;28;20119;-73
2023/05/23 04:37:20;;;;;;;19.80;6.70;;;13.30;99.90;;;;;;5060202;28;20079;-72
2023/05/23 04:39:47;;;;;;;24.90;7.50;;;13.30;99.90;;;;;;5067123;28;20055;-74
2023/05/23 04:42:13;;;;;;;20.30;5.90;;;13.30;99.90;;;;;;5063131;28;20051;-76
2023/05/23 04:44:38;;;;;;;19.13;5.47;;;13.20;99.90;;;;;;5047285;28;20028;-72
2023/05/23 04:47:04;;;;;;;16.38;5.95;;;13.20;99.90;;;;;;5056457;28;20741;-72
2023/05/23 04:49:33;;;;;;;15.02;5.68;;;13.20;99.90;;;;;;5068991;28;20075;-73
2023/05/23 04:51:58;;;;;;;18.35;5.95;;;13.20;99.90;;;;;;5052743;28;20483;-75
2023/05/23 04:54:24;;;;;;;18.52;5.80;;;13.20;99.90;;;;;;5057748;28;20029;-74
2023/05/23 04:56:50;;;;;;;21.08;6.10;;;13.20;99.90;;;;;;5057170;28;20036;-72
2023/05/23 04:59:16;;;;;;;22.77;6.30;;;13.20;99.90;;;;;;5057544;28;20039;-74
2023/05/23 05:01:41;;;;;;;15.38;5.03;;;13.10;99.90;;;;;;5052943;28;20483;-73
2023/05/23 05:04:07;;;;;;;17.80;5.78;;;13.20;99.90;;;;;;5056482;28;20350;-74
2023/05/23 05:06:32;;;;;;;16.10;6.32;;;13.20;99.90;;;;;;5052692;28;20033;-75
2023/05/23 05:08:58;;;;;;;19.95;5.32;;;13.20;99.90;;;;;;5062433;28;20045;-75
2023/05/23 05:11:25;;;;;;;20.23;6.40;;;13.20;99.90;;;;;;5071698;28;20471;-74
2023/05/23 05:13:51;;;;;;;21.70;7.10;;;13.30;99.90;;;;;;5072999;28;20033;-73
2023/05/23 05:16:17;;;;;;;28.48;9.90;;;13.30;99.90;;;;;;5071704;28;20522;-75
2023/05/23 05:18:42;;;;;;;23.17;5.97;;;13.30;99.90;;;;;;5070820;28;20044;-72
2023/05/23 05:21:08;;;;;;;21.02;6.22;;;13.30;99.90;;;;;;5072681;28;20361;-76
2023/05/23 05:23:35;;;;;;;22.38;6.57;;;13.30;99.90;;;;;;5072886;28;20434;-77
2023/05/23 05:26:00;;;;;;;19.58;5.00;;;13.30;99.90;;;;;;5058335;28;20029;-73
2023/05/23 05:28:26;;;;;;;22.38;5.15;;;13.30;99.90;;;;;;5057234;28;20663;-77
2023/05/23 05:30:54;;;;;;;19.25;4.20;;;13.30;99.90;;;;;;5087747;28;20043;-76
2023/05/23 05:33:23;;;;;;;17.02;5.60;;;13.30;99.90;;;;;;5072071;28;20031;-73
2023/05/23 05:35:52;;;;;;;15.65;4.47;;;13.30;99.90;;;;;;5090406;28;20020;-73
2023/05/23 05:38:18;;;;;;;12.43;4.30;;;13.30;99.90;;;;;;5074026;28;20051;-75
2023/05/23 05:40:43;;;;;;;11.73;3.40;;;13.30;99.90;;;;;;5076064;28;20396;-73
2023/05/23 05:43:09;;;;;;;16.73;3.50;;;13.30;99.90;;;;;;5084427;28;20028;-74
2023/05/23 05:45:35;;;;;;;16.08;5.03;;;13.30;99.90;;;;;;5075884;28;20028;-71
2023/05/23 05:48:00;;;;;;;13.32;3.70;;;13.30;99.90;;;;;;5088386;28;20024;-76
2023/05/23 05:50:26;;;;;;;11.95;3.78;;;13.40;99.90;;;;;;5077139;28;20156;-72
2023/05/23 05:52:52;;;;;;;14.90;3.55;;;13.40;99.90;;;;;;5077405;28;20460;-73
2023/05/23 05:55:17;;;;;;;12.05;3.45;;;13.40;99.90;;;;;;5077546;28;20056;-74
2023/05/23 05:57:43;;;;;;;15.55;3.75;;;13.30;99.90;;;;;;5084253;28;20103;-76
2023/05/23 06:00:14;;;;;;;15.15;4.40;;;13.30;99.90;;;;;;5084092;28;20020;-74
2023/05/23 06:02:41;;;;;;;12.38;2.72;;;13.20;99.90;;;;;;5075034;28;20078;-76
2023/05/23 06:05:11;;;;;;;12.63;3.38;;;13.30;99.90;;;;;;5082438;28;20060;-72
2023/05/23 06:07:37;;;;;;;16.70;3.65;;;13.30;99.90;;;;;;5085809;28;20062;-76
2023/05/23 06:10:03;;;;;;;15.65;3.33;;;13.30;99.90;;;;;;5093489;28;20076;-73
2023/05/23 06:12:28;;;;;;;17.17;4.30;;;13.50;99.90;;;;;;5090704;28;20027;-75
2023/05/23 06:14:54;;;;;;;15.23;3.15;;;13.50;99.90;;;;;;5084283;28;20165;-72
2023/05/23 06:17:20;;;;;;;26.48;4.40;;;13.80;99.90;;;;;;5080069;28;20034;-75
2023/05/23 06:19:45;;;;;;;13.40;3.03;;;14.50;99.90;;;;;;5082776;28;20537;-75
2023/05/23 06:22:11;;;;;;;9.32;2.65;;;15.50;99.90;;;;;;5088125;28;20035;-73
2023/05/23 06:24:36;;;;;;;13.02;2.40;;;16.10;99.90;;;;;;5091454;28;20070;-77
2023/05/23 06:27:02;;;;;;;19.77;5.30;;;16.60;99.90;;;;;;5086242;28;20024;-77
2023/05/23 06:29:29;;;;;;;19.75;3.75;;;17.00;99.90;;;;;;5071686;28;20064;-73
2023/05/23 06:31:55;;;;;;;15.85;3.70;;;17.60;99.90;;;;;;5058647;28;20048;-76
2023/05/23 06:34:21;;;;;;;13.77;2.55;;;18.10;99.90;;;;;;5063491;28;20017;-73
2023/05/23 06:36:47;;;;;;;16.00;3.00;;;18.50;98.80;;;;;;5066387;28;20025;-73
2023/05/23 06:39:13;;;;;;;13.55;3.00;;;18.50;98.30;;;;;;5067985;28;20037;-74
2023/05/23 06:41:38;;;;;;;17.00;3.55;;;18.20;98.60;;;;;;5064870;28;20381;-77
2023/05/23 06:44:04;;;;;;;19.67;3.47;;;18.10;98.60;;;;;;5056290;28;20384;-74
2023/05/23 06:46:30;;;;;;;12.68;2.67;;;17.90;98.90;;;;;;5055702;28;20029;-77
2023/05/23 06:48:56;;;;;;;16.88;2.60;;;17.90;98.30;;;;;;5072891;28;20048;-73
2023/05/23 06:51:21;;;;;;;14.68;3.17;;;17.60;98.50;;;;;;5064555;28;20094;-75
2023/05/23 06:53:47;;;;;;;10.00;2.90;;;17.20;99.30;;;;;;5057812;28;20431;-73
2023/05/23 06:56:12;;;;;;;14.68;2.72;;;16.80;99.90;;;;;;5058666;28;20068;-73
2023/05/23 06:58:38;;;;;;;16.77;3.90;;;16.80;99.90;;;;;;5056341;28;20366;-73
2023/05/23 07:01:04;;;;;;;13.32;2.53;;;17.40;99.60;;;;;;5060024;28;20017;-74
2023/05/23 07:03:29;;;;;;;16.67;3.03;;;17.80;98.60;;;;;;5061261;28;20025;-74
2023/05/23 07:05:55;;;;;;;11.27;2.55;;;17.80;98.90;;;;;;5055838;28;20017;-73
2023/05/23 07:08:21;;;;;;;18.90;4.38;;;18.10;98.20;;;;;;5059777;28;20029;-73
2023/05/23 07:10:46;;;;;;;15.40;2.88;;;18.30;98.20;;;;;;5069012;28;20503;-74
2023/05/23 07:13:12;;;;;;;16.40;3.83;;;18.40;97.80;;;;;;5074231;28;20024;-76
2023/05/23 07:15:37;;;;;;;9.98;2.35;;;18.50;97.60;;;;;;5064319;28;20036;-74
2023/05/23 07:18:03;;;;;;;17.25;3.17;;;18.10;97.90;;;;;;5057717;28;20107;-76
2023/05/23 07:20:29;;;;;;;11.73;2.55;;;17.90;98.30;;;;;;5060762;28;20035;-73
2023/05/23 07:22:56;;;;;;;15.02;3.00;;;18.10;97.90;;;;;;5072738;28;20032;-76
2023/05/23 07:25:22;;;;;;;17.05;3.10;;;18.40;97.70;;;;;;5074886;28;20039;-77
2023/05/23 07:27:47;;;;;;;18.48;4.35;;;18.80;97.40;;;;;;5073067;28;20033;-73
2023/05/23 07:30:15;;;;;;;16.98;3.90;;;19.20;97.00;;;;;;5069033;28;20439;-74
2023/05/23 07:32:41;;;;;;;19.40;4.18;;;19.70;96.50;;;;;;5047149;28;20105;-74
2023/05/23 07:35:07;;;;;;;14.88;4.47;;;20.00;95.80;;;;;;5073723;28;20052;-73
2023/05/23 07:37:32;;;;;;;13.68;2.55;;;19.80;95.50;;;;;;5067151;28;20037;-74
2023/05/23 07:39:58;;;;;;;14.30;3.45;;;19.50;95.80;;;;;;5058027;28;20078;-73
2023/05/23 07:42:23;;;;;;;14.45;3.80;;;19.30;96.50;;;;;;5063557;28;20086;-73
2023/05/23 07:44:49;;;;;;;20.15;3.95;;;19.70;96.20;;;;;;5055821;28;20035;-76
2023/05/23 07:47:14;;;;;;;11.73;2.95;;;19.80;95.50;;;;;;5065522;28;20029;-74
2023/05/23 07:49:40;;;;;;;11.13;2.42;;;19.80;95.30;;;;;;5073457;28;20081;-75
2023/05/23 07:52:06;;;;;;;14.82;3.03;;;19.40;94.60;;;;;;5046793;28;20028;-76
2023/05/23 07:54:31;;;;;;;11.02;2.75;;;19.10;94.90;;;;;;5073327;28;20028;-73
2023/05/23 07:56:57;;;;;;;11.30;2.67;;;19.00;94.40;;;;;;5056527;28;20041;-74
2023/05/23 07:59:22;;;;;;;14.93;3.10;;;18.90;94.60;;;;;;5064215;28;20025;-74
2023/05/23 08:01:51;;;;;;;11.18;2.90;;;18.90;94.40;;;;;;5048024;28;20033;-74
2023/05/23 08:04:17;;;;;;;18.23;3.90;;;18.90;94.70;;;;;;5054336;28;20041;-73
2023/05/23 08:06:46;;;;;;;17.02;3.60;;;19.00;95.20;;;;;;5065509;28;20032;-73
2023/05/23 08:09:11;;;;;;;13.95;2.90;;;19.60;95.40;;;;;;5067268;28;20119;-75
2023/05/23 08:11:37;;;;;;;14.65;2.50;;;20.30;94.80;;;;;;5060114;28;20159;-74
2023/05/23 08:14:02;;;;;;;16.85;3.50;;;20.40;93.80;;;;;;5053069;28;20071;-76
2023/05/23 08:16:28;;;;;;;14.35;3.13;;;20.40;93.60;;;;;;5067812;28;20071;-74
2023/05/23 08:18:54;;;;;;;11.55;2.97;;;20.30;93.60;;;;;;5053780;28;20134;-74
2023/05/23 08:21:19;;;;;;;12.18;3.42;;;20.10;93.90;;;;;;5058851;28;20056;-74
2023/05/23 08:23:45;;;;;;;17.38;3.40;;;20.40;94.20;;;;;;5059163;28;20040;-76
2023/05/23 08:26:10;;;;;;;17.20;3.72;;;21.30;93.60;;;;;;5071300;28;20060;-74
2023/05/23 08:28:36;;;;;;;14.60;3.00;;;21.80;92.80;;;;;;5074138;28;20113;-75
2023/05/23 08:31:02;;;;;;;13.73;3.38;;;22.10;92.20;;;;;;5074050;28;20443;-74
2023/05/23 08:33:27;;;;;;;10.32;2.88;;;22.10;91.80;;;;;;5073729;28;20024;-74
2023/05/23 08:35:53;;;;;;;15.57;3.08;;;21.90;91.60;;;;;;5055173;28;20024;-75
2023/05/23 08:38:20;;;;;;;12.63;2.95;;;21.60;92.00;;;;;;5051493;28;20037;-75
2023/05/23 08:40:51;;;;;;;17.70;2.95;;;22.00;91.50;;;;;;5073138;28;20460;-75
2023/05/23 08:43:17;;;;;;;11.02;2.90;;;22.40;91.00;;;;;;5072384;28;20028;-76
2023/05/23 08:45:43;;;;;;;12.75;3.30;;;22.70;90.10;;;;;;5072804;28;20115;-75
2023/05/23 08:48:12;;;;;;;11.32;3.15;;;22.90;90.40;;;;;;5056199;28;20029;-75
2023/05/23 08:50:39;;;;;;;16.63;3.60;;;23.00;90.40;;;;;;5068157;28;20454;-74
2023/05/23 08:53:09;;;;;;;10.07;2.65;;;22.70;90.60;;;;;;5060768;28;20465;-76
2023/05/23 08:55:36;;;;;;;12.18;2.92;;;22.00;90.90;;;;;;5070649;28;20029;-75
2023/05/23 08:58:02;;;;;;;17.10;2.75;;;21.20;91.40;;;;;;5071430;28;20024;-73
2023/05/23 09:00:28;;;;;;;15.00;2.80;;;20.50;92.10;;;;;;5056284;28;20067;-74
2023/05/23 09:02:55;;;;;;;14.52;3.33;;;20.10;92.60;;;;;;5035751;28;20025;-74
2023/05/23 09:05:21;;;;;;;14.00;3.50;;;19.90;92.80;;;;;;5062349;28;20025;-75
2023/05/23 09:07:47;;;;;;;13.82;2.60;;;19.90;92.80;;;;;;5069920;28;20032;-71
2023/05/23 09:10:18;;;;;;;16.80;3.20;;;19.90;93.00;;;;;;5070639;28;20048;-75
2023/05/23 09:12:44;;;;;;;17.02;3.00;;;20.30;92.70;;;;;;5056095;28;20070;-74
2023/05/23 09:15:11;;;;;;;14.55;3.05;;;20.60;92.40;;;;;;5063856;28;20024;-76
2023/05/23 09:17:36;;;;;;;13.23;2.97;;;20.50;92.40;;;;;;5046250;28;20025;-75
2023/05/23 09:20:13;;;;;;;8.75;2.60;;;20.70;91.50;;;;;;5056927;28;20385;-73
2023/05/23 09:22:40;;;;;;;10.63;2.78;;;21.10;91.00;;;;;;5056805;28;20048;-73
2023/05/23 09:25:06;;;;;;;11.40;3.20;;;21.30;92.00;;;;;;5064637;28;20017;-73
2023/05/23 09:27:32;;;;;;;15.95;3.45;;;21.00;92.40;;;;;;5063872;28;20511;-73
2023/05/23 09:30:08;;;;;;;15.68;3.30;;;20.60;92.60;;;;;;5057188;28;20080;-74
2023/05/23 09:32:33;;;;;;;16.15;3.55;;;20.50;92.80;;;;;;5070397;28;20418;-74
2023/05/23 09:35:03;;;;;;;14.98;3.33;;;21.00;92.70;;;;;;5063431;28;20021;-74
2023/05/23 09:37:34;;;;;;;18.52;3.20;;;21.80;91.30;;;;;;5043623;28;20472;-72
2023/05/23 09:40:05;;;;;;;13.03;2.80;;;22.20;90.80;;;;;;5055534;28;20390;-73
2023/05/23 09:42:37;;;;;;;11.55;2.97;;;22.80;89.50;;;;;;5067314;28;20523;-75
2023/05/23 09:45:04;;;;;;;15.77;3.15;;;22.80;89.10;;;;;;5058060;28;20020;-74
2023/05/23 09:47:29;;;;;;;13.13;2.92;;;22.80;88.70;;;;;;5072600;28;20039;-73
2023/05/23 09:49:55;;;;;;;11.63;2.35;;;22.40;88.50;;;;;;5072501;28;20033;-73
2023/05/23 09:52:20;;;;;;;14.05;3.20;;;22.10;89.30;;;;;;5072841;28;20029;-73
2023/05/23 09:54:46;;;;;;;13.63;2.45;;;21.50;90.00;;;;;;5065181;28;20102;-74
2023/05/23 09:57:18;;;;;;;11.90;2.90;;;21.00;90.60;;;;;;5068640;28;20147;-74
2023/05/23 09:59:48;;;;;;;;;;;20.70;91.20;;;;;;5072444;28;20024;-73
2023/05/23 10:02:15;;;;;;;12.98;3.28;;;20.40;91.90;;;;;;5056327;28;19911;-73
2023/05/23 10:04:42;;;;;;;22.08;4.53;;;20.30;92.30;;;;;;5057870;28;20020;-76
2023/05/23 10:07:21;;;;;;;18.25;3.70;;;20.40;92.50;;;;;;5067212;28;20021;-74
2023/05/23 10:09:55;;;;;;;9.75;2.80;;;20.40;92.80;;;;;;5066019;28;20032;-72
2023/05/23 10:12:38;;;;;;;11.43;2.42;;;20.50;92.40;;;;;;5060059;28;20025;-74
2023/05/23 10:15:06;;;;;;;12.70;2.83;;;20.50;92.20;;;;;;5062140;28;20025;-74
2023/05/23 10:17:36;;;;;;;18.40;2.85;;;20.30;92.40;;;;;;5052542;28;20457;-73
2023/05/23 10:20:07;;;;;;;10.52;3.30;;;20.10;92.80;;;;;;5069559;28;20046;-74
2023/05/23 10:22:36;;;;;;;16.67;3.28;;;20.40;92.30;;;;;;5062639;28;20818;-76
2023/05/23 10:25:04;;;;;;;11.38;2.30;;;20.70;92.10;;;;;;5071190;28;20473;-74
2023/05/23 10:27:30;;;;;;;12.77;2.53;;;21.10;91.40;;;;;;5055999;28;20112;-76
2023/05/23 10:29:58;;;;;;;14.35;3.47;;;21.10;91.50;;;;;;5056521;28;20040;-74
2023/05/23 10:32:25;;;;;;;14.50;3.13;;;21.00;91.40;;;;;;5063587;28;20072;-73
2023/05/23 10:35:03;;;;;;;10.18;2.85;;;21.30;91.50;;;;;;5063294;28;20034;-71
2023/05/23 10:37:39;;;;;;;11.02;2.90;;;21.30;91.20;;;;;;5072979;28;20297;-74
2023/05/23 10:40:23;;;;;;;13.85;2.65;;;20.90;91.40;;;;;;5072332;28;20024;-76
2023/05/23 10:43:04;;;;;;;14.60;2.50;;;21.10;91.10;;;;;;5066972;28;20044;-72
2023/05/23 10:45:41;;;;;;;14.00;2.80;;;21.80;90.80;;;;;;5067710;28;20036;-72
2023/05/23 10:48:21;;;;;;;10.32;2.80;;;22.40;90.20;;;;;;5068908;28;20385;-72
2023/05/23 10:51:07;;;;;;;10.45;2.63;;;23.50;88.20;;;;;;5042899;28;20049;-73
2023/05/23 10:53:38;;;;;;;14.02;2.10;;;24.10;85.40;;;;;;5053196;28;20351;-76
2023/05/23 10:56:08;;;;;;;11.85;2.50;;;24.10;85.00;;;;;;5060404;28;20039;-73
2023/05/23 10:58:35;;;;;;;11.85;2.35;;;23.80;84.90;;;;;;5065208;28;20441;-72
2023/05/23 11:01:15;;;;;;;15.48;2.30;;;24.10;84.20;;;;;;5073645;28;20037;-73
2023/05/23 11:03:47;;;;;;;12.02;2.40;;;24.80;83.30;;;;;;5044957;28;20024;-73
2023/05/23 11:06:27;;;;;;;13.10;2.63;;;25.30;81.90;;;;;;5070274;28;20369;-75
2023/05/23 11:09:02;;;;;;;11.57;2.55;;;24.50;82.00;;;;;;5072508;28;20405;-73
2023/05/23 11:11:47;;;;;;;15.68;2.67;;;23.90;83.00;;;;;;5075729;28;20020;-73
2023/05/23 11:14:14;;;;;;;10.93;2.65;;;23.50;84.00;;;;;;5074259;28;20024;-74
2023/05/23 11:16:42;;;;;;;16.02;2.45;;;23.50;84.00;;;;;;5070507;28;20021;-73
2023/05/23 11:19:17;;;;;;;12.20;2.45;;;23.90;82.60;;;;;;5058438;28;20025;-74
2023/05/23 11:21:44;;;;;;;11.90;2.42;;;23.80;81.70;;;;;;5066008;28;20033;-76
2023/05/23 11:24:10;;;;;;;12.85;2.90;;;23.70;82.60;;;;;;5072044;28;20024;-74
2023/05/23 11:26:35;;;;;;;12.50;2.65;;;24.30;82.50;;;;;;5064002;28;20590;-74
2023/05/23 11:29:02;;;;;;;18.23;3.13;;;24.30;82.90;;;;;;5055591;28;20059;-75
2023/05/23 11:31:29;;;;;;;15.00;3.13;;;24.10;83.00;;;;;;5074601;28;20112;-75
2023/05/23 11:33:55;;;;;;;14.50;2.75;;;24.30;83.10;;;;;;5063719;28;20380;-73
2023/05/23 11:36:21;;;;;;;13.85;3.20;;;25.30;81.90;;;;;;5058485;28;20112;-74
2023/05/23 11:38:49;;;;;;;12.05;2.63;;;26.10;81.10;;;;;;5071057;28;20052;-73
2023/05/23 11:41:14;;;;;;;11.10;2.50;;;26.10;79.30;;;;;;5058464;28;20521;-73
2023/05/23 11:43:53;;;;;;;15.57;2.85;;;25.70;79.90;;;;;;5071328;28;20107;-74
2023/05/23 11:46:19;;;;;;;15.65;3.22;;;26.30;79.40;;;;;;5060144;28;20111;-75
2023/05/23 11:48:45;;;;;;;10.82;2.10;;;26.80;78.50;;;;;;5070078;28;20119;-75
2023/05/23 11:51:11;;;;;;;13.48;2.83;;;26.90;77.60;;;;;;5058409;28;20103;-72
2023/05/23 11:53:37;;;;;;;23.48;3.95;;;26.80;77.50;;;;;;5073395;28;20033;-76
2023/05/23 11:56:03;;;;;;;13.32;2.90;;;26.50;77.60;;;;;;5071106;28;20037;-73
2023/05/23 11:58:36;;;;;;;13.60;3.40;;;26.60;77.00;;;;;;5073431;28;20051;-73
2023/05/23 12:01:08;;;;;;;9.13;2.50;;;26.30;77.40;;;;;;5061924;28;20031;-73
2023/05/23 12:03:34;;;;;;;;;;;26.30;76.90;;;;;;5054376;28;20020;-73
2023/05/23 12:06:03;;;;;;;14.23;2.83;;;26.10;77.70;;;;;;5069146;28;19908;-75
2023/05/23 12:08:28;;;;;;;18.23;2.55;;;25.40;78.60;;;;;;5058554;28;20052;-73
2023/05/23 12:10:59;;;;;;;10.45;2.38;;;24.60;79.30;;;;;;5069673;28;20480;-73
2023/05/23 12:13:27;;;;;;;13.02;2.20;;;24.50;79.70;;;;;;5059426;28;20048;-73
2023/05/23 12:16:00;;;;;;;12.82;2.50;;;24.70;79.20;;;;;;5067431;28;20104;-74
2023/05/23 12:18:30;;;;;;;11.00;2.50;;;24.50;78.70;;;;;;5073211;28;20035;-73
2023/05/23 12:21:04;;;;;;;8.80;2.22;;;24.60;78.80;;;;;;5070886;28;20025;-75
2023/05/23 12:23:30;;;;;;;13.43;2.58;;;25.30;78.00;;;;;;5060783;28;20032;-73
2023/05/23 12:25:56;;;;;;;12.48;2.15;;;25.90;76.10;;;;;;5067253;28;20028;-73
2023/05/23 12:28:43;;;;;;;10.90;2.40;;;26.30;74.60;;;;;;5058576;28;20099;-73
2023/05/23 12:31:24;;;;;;;8.52;1.90;;;26.40;73.60;;;;;;5057008;28;20051;-74
2023/05/23 12:33:52;;;;;;;15.93;2.60;;;26.30;73.30;;;;;;5067629;28;20078;-72
2023/05/23 12:36:24;;;;;;;13.85;2.55;;;26.20;74.10;;;;;;5072471;28;20025;-74
2023/05/23 12:38:50;;;;;;;11.55;2.47;;;25.90;75.50;;;;;;5055452;28;20108;-74
2023/05/23 12:41:20;;;;;;;7.22;2.05;;;25.80;76.20;;;;;;5068288;28;20104;-76